Inicio METAR Ruta Wind Satelite

Informe Meteorológico

Fecha: 2020/09/22 21:14:26 Local
2020.09.23 02:14 UTC


Estado: VENCIDO
Operación:VFR
Arauca / Santiago Perez, Colombia (SKUC) 07-04N 070-44W 128M
2020.09.22 2200 UTC
Wind: from the E (080 degrees) at 3 MPH (3 KT):0
Visibility: greater than 7 mile(s):0
Temperature: 89 F (32 C)
Heat index: 100.6 F (38.1 C):1
Dew Point: 77 F (25 C)
Relative Humidity: 66%
Pressure (altimeter): 29.76 in. Hg (1007 hPa)
ob: SKUC 222200Z 08003KT CAVOK 32/25 A2976
cycle: 22

SKUC 222100Z 00000KT CAVOK 33/24 A2976
SKUC 221900Z 03003KT 9999 FEW020 34/24 A2980
SKUC 221800Z 10004KT 9999 FEW020 34/24 A2984
SKUC 221700Z 12007KT 9999 FEW020 32/24 A2990
SKUC 221600Z 08004KT 9999 FEW020 32/24 A2990